createdAt,value
2023-02-15T00:01:41.506Z,100.00
2023-02-15T00:04:08.428Z,100.00
2023-02-15T00:06:34.990Z,100.00
2023-02-15T00:09:01.552Z,100.00
2023-02-15T00:11:46.805Z,100.00
2023-02-15T00:14:22.595Z,100.00
2023-02-15T00:16:49.712Z,100.00
2023-02-15T00:19:17.356Z,100.00
2023-02-15T00:21:43.959Z,100.00
2023-02-15T00:24:11.381Z,100.00
2023-02-15T00:26:39.309Z,100.00
2023-02-15T00:29:05.775Z,100.00
2023-02-15T00:31:33.010Z,100.00
2023-02-15T00:34:13.208Z,100.00
2023-02-15T00:36:39.572Z,100.00
2023-02-15T00:39:06.136Z,100.00
2023-02-15T00:41:33.356Z,100.00
2023-02-15T00:43:59.857Z,100.00
2023-02-15T00:46:26.330Z,100.00
2023-02-15T00:48:52.780Z,100.00
2023-02-15T00:51:19.272Z,100.00
2023-02-15T00:53:45.756Z,100.00
2023-02-15T00:56:12.233Z,100.00
2023-02-15T00:58:38.695Z,100.00
2023-02-15T01:01:06.714Z,100.00
2023-02-15T01:03:33.241Z,100.00
2023-02-15T01:05:59.961Z,100.00
2023-02-15T01:08:26.775Z,100.00
2023-02-15T01:10:53.988Z,100.00
2023-02-15T01:13:20.439Z,100.00
2023-02-15T01:15:46.921Z,100.00
2023-02-15T01:18:13.595Z,100.00
2023-02-15T01:20:41.989Z,100.00
2023-02-15T01:23:08.811Z,100.00
2023-02-15T01:25:35.714Z,100.00
2023-02-15T01:28:02.515Z,100.00
2023-02-15T01:30:29.264Z,100.00
2023-02-15T01:32:55.889Z,100.00
2023-02-15T01:35:22.378Z,100.00
2023-02-15T01:37:48.843Z,100.00
2023-02-15T01:40:17.625Z,100.00
2023-02-15T01:42:44.389Z,100.00
2023-02-15T01:45:27.981Z,100.00
2023-02-15T01:48:06.716Z,100.00
2023-02-15T01:50:39.357Z,100.00
2023-02-15T01:53:10.236Z,100.00
2023-02-15T01:55:54.238Z,100.00
2023-02-15T01:58:21.244Z,100.00
2023-02-15T02:00:47.781Z,100.00
2023-02-15T02:03:14.270Z,100.00
2023-02-15T02:05:40.819Z,100.00
2023-02-15T02:08:07.281Z,100.00
2023-02-15T02:10:33.842Z,100.00
2023-02-15T02:13:01.314Z,100.00
2023-02-15T02:15:42.087Z,100.00
2023-02-15T02:18:22.653Z,100.00
2023-02-15T02:21:10.383Z,100.00
2023-02-15T02:24:01.736Z,100.00
2023-02-15T02:26:52.819Z,100.00
2023-02-15T02:29:37.515Z,100.00
2023-02-15T02:32:09.570Z,100.00
2023-02-15T02:34:49.084Z,100.00
2023-02-15T02:37:37.156Z,100.00
2023-02-15T02:40:24.874Z,100.00
2023-02-15T02:42:57.105Z,100.00
2023-02-15T02:45:27.003Z,100.00
2023-02-15T02:48:07.331Z,100.00
2023-02-15T02:50:33.803Z,100.00
2023-02-15T02:53:00.349Z,100.00
2023-02-15T02:55:30.358Z,100.00
2023-02-15T02:58:00.247Z,100.00
2023-02-15T03:00:27.471Z,100.00
2023-02-15T03:03:27.299Z,100.00
2023-02-15T03:05:55.629Z,100.00
2023-02-15T03:08:25.517Z,100.00
2023-02-15T03:10:53.991Z,100.00
2023-02-15T03:13:20.816Z,100.00
2023-02-15T03:16:05.925Z,100.00
2023-02-15T03:18:36.759Z,100.00
2023-02-15T03:21:03.251Z,100.00
2023-02-15T03:23:29.714Z,100.00
2023-02-15T03:26:01.675Z,100.00
2023-02-15T03:28:34.664Z,100.00
2023-02-15T03:31:01.959Z,100.00
2023-02-15T03:33:28.480Z,100.00
2023-02-15T03:36:26.157Z,100.00
2023-02-15T03:39:21.862Z,100.00
2023-02-15T03:42:12.973Z,100.00
2023-02-15T03:44:54.971Z,100.00
2023-02-15T03:47:24.326Z,100.00
2023-02-15T03:50:01.238Z,100.00
2023-02-15T03:52:27.912Z,100.00
2023-02-15T03:54:54.383Z,100.00
2023-02-15T03:57:40.500Z,100.00
2023-02-15T04:00:29.960Z,100.00
2023-02-15T04:03:27.184Z,100.00
2023-02-15T04:05:53.896Z,100.00
2023-02-15T04:08:20.393Z,100.00
2023-02-15T04:10:58.960Z,100.00
2023-02-15T04:13:31.121Z,100.00
2023-02-15T04:16:07.640Z,100.00
2023-02-15T04:18:58.300Z,100.00
2023-02-15T04:21:43.442Z,100.00
2023-02-15T04:24:28.653Z,100.00
2023-02-15T04:26:55.474Z,100.00
2023-02-15T04:29:22.234Z,100.00
2023-02-15T04:31:48.966Z,100.00
2023-02-15T04:34:15.734Z,100.00
2023-02-15T04:36:42.598Z,100.00
2023-02-15T04:39:09.197Z,100.00
2023-02-15T04:41:35.685Z,100.00
2023-02-15T04:44:02.236Z,100.00
2023-02-15T04:46:28.825Z,100.00
2023-02-15T04:48:56.360Z,100.00
2023-02-15T04:51:22.841Z,100.00
2023-02-15T04:53:49.445Z,100.00
2023-02-15T04:56:16.103Z,100.00
2023-02-15T04:58:42.556Z,100.00
2023-02-15T05:01:09.712Z,100.00
2023-02-15T05:03:36.243Z,100.00
2023-02-15T05:06:03.014Z,100.00
2023-02-15T05:08:29.713Z,100.00
2023-02-15T05:10:56.169Z,100.00
2023-02-15T05:13:22.655Z,100.00
2023-02-15T05:15:49.970Z,100.00
2023-02-15T05:18:16.981Z,100.00
2023-02-15T05:20:43.590Z,100.00
2023-02-15T05:23:10.122Z,100.00
2023-02-15T05:25:55.257Z,100.00
2023-02-15T05:28:22.587Z,100.00
2023-02-15T05:30:49.783Z,100.00
2023-02-15T05:33:16.409Z,100.00
2023-02-15T05:35:43.147Z,100.00
2023-02-15T05:38:09.717Z,100.00
2023-02-15T05:40:36.183Z,100.00
2023-02-15T05:43:02.663Z,100.00
2023-02-15T05:45:29.234Z,100.00
2023-02-15T05:47:56.034Z,100.00
2023-02-15T05:50:22.776Z,100.00
2023-02-15T05:52:51.256Z,100.00
2023-02-15T05:55:18.865Z,100.00
2023-02-15T05:57:45.373Z,100.00
2023-02-15T06:00:12.703Z,100.00
2023-02-15T06:02:39.531Z,100.00
2023-02-15T06:05:06.496Z,100.00
2023-02-15T06:07:33.040Z,100.00
2023-02-15T06:09:59.521Z,100.00
2023-02-15T06:12:26.000Z,100.00
2023-02-15T06:14:52.748Z,100.00
2023-02-15T06:17:19.230Z,100.00
2023-02-15T06:19:45.732Z,100.00
2023-02-15T06:22:14.947Z,100.00
2023-02-15T06:24:43.468Z,100.00
2023-02-15T06:27:10.996Z,100.00
2023-02-15T06:29:37.468Z,100.00
2023-02-15T06:32:04.117Z,100.00
2023-02-15T06:34:30.656Z,100.00
2023-02-15T06:36:57.195Z,100.00
2023-02-15T06:39:23.642Z,100.00
2023-02-15T06:41:50.107Z,100.00
2023-02-15T06:44:16.595Z,100.00
2023-02-15T06:46:43.108Z,100.00
2023-02-15T06:49:09.652Z,100.00
2023-02-15T06:51:36.103Z,100.00
2023-02-15T06:54:02.559Z,100.00
2023-02-15T06:56:29.001Z,100.00
2023-02-15T06:58:55.468Z,100.00
2023-02-15T07:01:21.948Z,100.00
2023-02-15T07:03:48.455Z,100.00
2023-02-15T07:06:14.943Z,100.00
2023-02-15T07:08:41.446Z,100.00
2023-02-15T07:11:26.706Z,100.00
2023-02-15T07:13:53.609Z,100.00
2023-02-15T07:16:20.509Z,100.00
2023-02-15T07:18:47.068Z,100.00
2023-02-15T07:21:13.537Z,100.00
2023-02-15T07:23:40.416Z,100.00
2023-02-15T07:26:07.076Z,100.00
2023-02-15T07:28:34.397Z,100.00
2023-02-15T07:31:04.632Z,100.00
2023-02-15T07:33:34.625Z,100.00
2023-02-15T07:36:03.192Z,100.00
2023-02-15T07:38:34.834Z,100.00
2023-02-15T07:41:05.037Z,100.00
2023-02-15T07:43:31.544Z,100.00
2023-02-15T07:46:02.069Z,100.00
2023-02-15T07:48:28.737Z,100.00
2023-02-15T07:50:55.237Z,100.00
2023-02-15T07:53:21.722Z,100.00
2023-02-15T07:55:48.190Z,100.00
2023-02-15T07:58:14.659Z,100.00
2023-02-15T08:00:59.189Z,100.00
2023-02-15T08:03:27.762Z,100.00
2023-02-15T08:05:59.217Z,100.00
2023-02-15T08:08:32.382Z,100.00
2023-02-15T08:11:21.680Z,100.00
2023-02-15T08:13:54.681Z,100.00
2023-02-15T08:16:25.450Z,100.00
2023-02-15T08:18:52.985Z,100.00
2023-02-15T08:21:20.281Z,100.00
2023-02-15T08:23:46.966Z,100.00
2023-02-15T08:26:13.500Z,100.00
2023-02-15T08:28:41.923Z,100.00
2023-02-15T08:31:12.217Z,100.00
2023-02-15T08:33:39.460Z,100.00
2023-02-15T08:36:11.062Z,100.00
2023-02-15T08:38:37.570Z,100.00
2023-02-15T08:41:10.837Z,100.00
2023-02-15T08:43:37.308Z,100.00
2023-02-15T08:46:03.785Z,100.00
2023-02-15T08:48:30.283Z,100.00
2023-02-15T08:50:56.800Z,100.00
2023-02-15T08:53:23.313Z,100.00
2023-02-15T08:55:59.456Z,100.00
2023-02-15T08:58:26.191Z,100.00
2023-02-15T09:00:52.866Z,100.00
2023-02-15T09:03:19.415Z,100.00
2023-02-15T09:05:45.907Z,100.00
2023-02-15T09:08:12.378Z,100.00
2023-02-15T09:10:38.838Z,100.00
2023-02-15T09:13:05.334Z,100.00
2023-02-15T09:15:31.792Z,100.00
2023-02-15T09:18:02.298Z,100.00
2023-02-15T09:20:29.743Z,100.00
2023-02-15T09:22:58.158Z,100.00
2023-02-15T09:25:26.177Z,100.00
2023-02-15T09:27:52.886Z,100.00
2023-02-15T09:30:19.856Z,100.00
2023-02-15T09:32:47.093Z,100.00
2023-02-15T09:35:13.609Z,100.00
2023-02-15T09:37:40.336Z,100.00
2023-02-15T09:40:07.400Z,100.00
2023-02-15T09:43:05.002Z,100.00
2023-02-15T09:45:55.206Z,100.00
2023-02-15T09:48:28.580Z,100.00
2023-02-15T09:51:02.416Z,100.00
2023-02-15T09:53:55.028Z,100.00
2023-02-15T09:56:38.398Z,100.00
2023-02-15T09:59:36.614Z,100.00
2023-02-15T10:02:12.525Z,100.00
2023-02-15T10:04:45.937Z,100.00
2023-02-15T10:07:44.041Z,100.00
2023-02-15T10:10:30.657Z,100.00
2023-02-15T10:13:06.037Z,100.00
2023-02-15T10:15:52.950Z,100.00
2023-02-15T10:18:25.415Z,100.00
2023-02-15T10:20:58.733Z,100.00
2023-02-15T10:23:31.244Z,100.00
2023-02-15T10:26:16.015Z,100.00
2023-02-15T10:28:52.636Z,100.00
2023-02-15T10:31:29.564Z,100.00
2023-02-15T10:34:14.844Z,100.00
2023-02-15T10:36:59.933Z,100.00
2023-02-15T10:39:30.635Z,100.00
2023-02-15T10:42:21.544Z,100.00
2023-02-15T10:45:00.146Z,100.00
2023-02-15T10:47:39.278Z,100.00
2023-02-15T10:50:14.786Z,100.00
2023-02-15T10:53:04.398Z,100.00
2023-02-15T10:55:46.011Z,100.00
2023-02-15T10:58:29.882Z,100.00
2023-02-15T11:01:20.903Z,100.00
2023-02-15T11:04:07.068Z,100.00
2023-02-15T11:06:33.546Z,100.00
2023-02-15T11:09:26.882Z,100.00
2023-02-15T11:11:54.703Z,100.00
2023-02-15T11:14:42.197Z,100.00
2023-02-15T11:17:20.860Z,100.00
2023-02-15T11:20:17.213Z,100.00
2023-02-15T11:22:43.748Z,100.00
2023-02-15T11:25:22.476Z,100.00
2023-02-15T11:27:49.284Z,100.00
2023-02-15T11:30:22.887Z,100.00
2023-02-15T11:32:55.337Z,100.00
2023-02-15T11:35:42.686Z,100.00
2023-02-15T11:38:44.327Z,100.00
2023-02-15T11:41:22.747Z,100.00
2023-02-15T11:44:04.354Z,100.00
2023-02-15T11:46:30.862Z,100.00
2023-02-15T11:48:57.592Z,100.00
2023-02-15T11:51:24.429Z,100.00
2023-02-15T11:53:51.308Z,100.00
2023-02-15T11:56:19.301Z,100.00
2023-02-15T11:58:52.908Z,100.00
2023-02-15T12:01:24.422Z,100.00
2023-02-15T12:03:56.313Z,100.00
2023-02-15T12:06:30.956Z,98.88
2023-02-15T12:09:16.999Z,99.81
2023-02-15T12:11:43.654Z,99.89
2023-02-15T12:14:12.570Z,100.00
2023-02-15T12:16:49.975Z,98.08
2023-02-15T12:19:28.447Z,99.78
2023-02-15T12:21:54.949Z,100.00
2023-02-15T12:24:27.276Z,100.00
2023-02-15T12:27:04.701Z,98.58
2023-02-15T12:29:35.493Z,97.74
2023-02-15T12:32:02.139Z,98.04
2023-02-15T12:34:31.910Z,94.18
2023-02-15T12:37:01.517Z,93.37
2023-02-15T12:39:31.947Z,93.10
2023-02-15T12:42:04.463Z,92.71
2023-02-15T12:44:35.206Z,91.40
2023-02-15T12:47:06.385Z,91.00
2023-02-15T12:49:34.411Z,89.15
2023-02-15T12:52:02.247Z,88.95
2023-02-15T12:54:42.856Z,89.28
2023-02-15T12:57:28.920Z,90.72
2023-02-15T12:59:58.997Z,89.87
2023-02-15T13:02:43.839Z,90.27
2023-02-15T13:05:20.728Z,88.25
2023-02-15T13:08:16.943Z,88.50
2023-02-15T13:11:04.025Z,87.62
2023-02-15T13:13:36.012Z,88.84
2023-02-15T13:16:05.098Z,90.58
2023-02-15T13:18:33.949Z,86.83
2023-02-15T13:21:27.732Z,85.93
2023-02-15T13:24:00.091Z,85.40
2023-02-15T13:26:27.609Z,84.19
2023-02-15T13:28:56.640Z,83.84
2023-02-15T13:31:25.776Z,83.83
2023-02-15T13:33:57.696Z,83.77
2023-02-15T13:36:32.318Z,86.30
2023-02-15T13:39:08.510Z,84.98
2023-02-15T13:41:55.698Z,86.07
2023-02-15T13:44:25.142Z,85.43
2023-02-15T13:46:53.771Z,85.79
2023-02-15T13:49:49.205Z,86.96
2023-02-15T13:52:22.365Z,86.55
2023-02-15T13:54:54.694Z,85.01
2023-02-15T13:58:00.359Z,86.03
2023-02-15T14:01:00.110Z,86.01
2023-02-15T14:03:43.465Z,86.34
2023-02-15T14:06:34.212Z,87.25
2023-02-15T14:09:18.361Z,88.17
2023-02-15T14:12:09.153Z,88.54
2023-02-15T14:14:58.688Z,89.93
2023-02-15T14:18:02.678Z,89.73
2023-02-15T14:20:50.006Z,94.10
2023-02-15T14:23:47.547Z,93.48
2023-02-15T14:26:39.121Z,95.73
2023-02-15T14:29:11.972Z,95.32
2023-02-15T14:31:43.766Z,94.52
2023-02-15T14:34:23.234Z,94.86
2023-02-15T14:36:51.217Z,93.71
2023-02-15T14:39:55.095Z,94.13
2023-02-15T14:42:35.599Z,96.62
2023-02-15T14:45:08.336Z,96.08
2023-02-15T14:47:37.266Z,96.41
2023-02-15T14:50:32.129Z,99.22
2023-02-15T14:53:24.398Z,100.00
2023-02-15T14:56:11.939Z,100.00
2023-02-15T14:58:38.522Z,99.17
2023-02-15T15:01:09.092Z,99.19
2023-02-15T15:03:36.556Z,98.40
2023-02-15T15:06:05.825Z,99.14
2023-02-15T15:08:38.395Z,99.70
2023-02-15T15:11:42.498Z,100.00
2023-02-15T15:14:10.076Z,100.00
2023-02-15T15:16:36.698Z,100.00
2023-02-15T15:19:04.379Z,100.00
2023-02-15T15:21:49.072Z,100.00
2023-02-15T15:24:38.284Z,100.00
2023-02-15T15:27:38.829Z,100.00
2023-02-15T15:30:14.277Z,100.00
2023-02-15T15:32:58.053Z,100.00
2023-02-15T15:35:30.538Z,100.00
2023-02-15T15:37:56.914Z,100.00
2023-02-15T15:40:42.615Z,100.00
2023-02-15T15:43:31.301Z,100.00
2023-02-15T15:46:19.516Z,100.00
2023-02-15T15:48:46.281Z,100.00
2023-02-15T15:51:22.103Z,100.00
2023-02-15T15:53:51.383Z,100.00
2023-02-15T15:56:23.889Z,100.00
2023-02-15T15:58:53.024Z,100.00
2023-02-15T16:01:28.135Z,100.00
2023-02-15T16:03:56.297Z,100.00
2023-02-15T16:06:31.144Z,100.00
2023-02-15T16:08:57.632Z,100.00
2023-02-15T16:11:26.546Z,100.00
2023-02-15T16:13:53.890Z,100.00
2023-02-15T16:16:25.024Z,100.00
2023-02-15T16:18:51.526Z,100.00
2023-02-15T16:21:30.095Z,100.00
2023-02-15T16:24:08.747Z,100.00
2023-02-15T16:27:12.998Z,100.00
2023-02-15T16:29:39.729Z,100.00
2023-02-15T16:32:23.204Z,100.00
2023-02-15T16:34:53.977Z,100.00
2023-02-15T16:37:28.358Z,100.00
2023-02-15T16:39:55.859Z,100.00
2023-02-15T16:42:22.581Z,100.00
2023-02-15T16:44:56.652Z,100.00
2023-02-15T16:47:25.650Z,100.00
2023-02-15T16:49:52.832Z,100.00
2023-02-15T16:52:25.025Z,100.00
2023-02-15T16:54:56.780Z,100.00
2023-02-15T16:57:25.668Z,100.00
2023-02-15T16:59:53.340Z,100.00
2023-02-15T17:02:43.201Z,100.00
2023-02-15T17:05:12.001Z,100.00
2023-02-15T17:08:02.273Z,100.00
2023-02-15T17:10:32.692Z,100.00
2023-02-15T17:13:02.818Z,100.00
2023-02-15T17:15:44.753Z,100.00
2023-02-15T17:18:19.675Z,100.00
2023-02-15T17:20:47.245Z,100.00
2023-02-15T17:23:32.713Z,100.00
2023-02-15T17:25:59.662Z,100.00
2023-02-15T17:28:28.298Z,100.00
2023-02-15T17:30:55.043Z,100.00
2023-02-15T17:33:24.486Z,100.00
2023-02-15T17:36:20.135Z,100.00
2023-02-15T17:38:58.472Z,100.00
2023-02-15T17:41:25.534Z,100.00
2023-02-15T17:43:52.012Z,100.00
2023-02-15T17:46:19.664Z,100.00
2023-02-15T17:48:47.424Z,100.00
2023-02-15T17:51:14.304Z,100.00
2023-02-15T17:53:41.286Z,100.00
2023-02-15T17:56:10.788Z,100.00
2023-02-15T17:58:37.523Z,100.00
2023-02-15T18:01:25.907Z,100.00
2023-02-15T18:04:11.768Z,100.00
2023-02-15T18:06:58.441Z,100.00
2023-02-15T18:09:43.860Z,100.00
2023-02-15T18:12:24.654Z,100.00
2023-02-15T18:14:51.371Z,100.00
2023-02-15T18:17:18.158Z,100.00
2023-02-15T18:19:45.072Z,100.00
2023-02-15T18:22:16.304Z,100.00
2023-02-15T18:24:43.129Z,100.00
2023-02-15T18:27:13.898Z,100.00
2023-02-15T18:29:40.451Z,100.00
2023-02-15T18:32:15.899Z,100.00
2023-02-15T18:34:42.406Z,100.00
2023-02-15T18:37:14.164Z,100.00
2023-02-15T18:39:46.670Z,100.00
2023-02-15T18:42:24.381Z,100.00
2023-02-15T18:44:52.112Z,100.00
2023-02-15T18:47:18.603Z,100.00
2023-02-15T18:49:45.113Z,100.00
2023-02-15T18:52:19.221Z,100.00
2023-02-15T18:54:46.297Z,100.00
2023-02-15T18:57:13.776Z,100.00
2023-02-15T18:59:40.545Z,100.00
2023-02-15T19:02:15.175Z,100.00
2023-02-15T19:04:41.862Z,100.00
2023-02-15T19:07:29.726Z,100.00
2023-02-15T19:09:57.369Z,100.00
2023-02-15T19:12:23.901Z,100.00
2023-02-15T19:14:52.891Z,100.00
2023-02-15T19:17:20.830Z,100.00
2023-02-15T19:19:47.380Z,100.00
2023-02-15T19:22:32.605Z,100.00
2023-02-15T19:25:00.628Z,100.00
2023-02-15T19:27:37.165Z,100.00
2023-02-15T19:30:27.069Z,100.00
2023-02-15T19:32:53.878Z,100.00
2023-02-15T19:35:22.441Z,100.00
2023-02-15T19:37:54.475Z,100.00
2023-02-15T19:40:28.832Z,100.00
2023-02-15T19:42:55.456Z,100.00
2023-02-15T19:45:24.529Z,100.00
2023-02-15T19:47:52.367Z,100.00
2023-02-15T19:50:20.111Z,100.00
2023-02-15T19:52:46.645Z,100.00
2023-02-15T19:55:35.000Z,100.00
2023-02-15T19:58:01.812Z,100.00
2023-02-15T20:00:30.008Z,100.00
2023-02-15T20:02:57.885Z,100.00
2023-02-15T20:05:24.444Z,100.00
2023-02-15T20:07:53.327Z,100.00
2023-02-15T20:10:24.045Z,100.00
2023-02-15T20:12:50.589Z,100.00
2023-02-15T20:15:30.869Z,100.00
2023-02-15T20:17:58.073Z,100.00
2023-02-15T20:20:28.411Z,100.00
2023-02-15T20:22:54.936Z,100.00
2023-02-15T20:25:25.469Z,100.00
2023-02-15T20:27:51.950Z,100.00
2023-02-15T20:30:28.938Z,100.00
2023-02-15T20:32:55.589Z,100.00
2023-02-15T20:35:23.771Z,100.00
2023-02-15T20:37:54.005Z,100.00
2023-02-15T20:40:22.080Z,100.00
2023-02-15T20:42:48.551Z,100.00
2023-02-15T20:45:23.182Z,100.00
2023-02-15T20:47:50.256Z,100.00
2023-02-15T20:50:21.085Z,100.00
2023-02-15T20:52:48.196Z,100.00
2023-02-15T20:55:16.665Z,100.00
2023-02-15T20:57:43.314Z,100.00
2023-02-15T21:00:14.168Z,100.00
2023-02-15T21:02:41.051Z,100.00
2023-02-15T21:05:15.799Z,100.00
2023-02-15T21:07:42.260Z,100.00
2023-02-15T21:10:13.975Z,100.00
2023-02-15T21:12:40.460Z,100.00
2023-02-15T21:15:27.287Z,100.00
2023-02-15T21:17:53.898Z,100.00
2023-02-15T21:20:20.484Z,100.00
2023-02-15T21:22:48.038Z,100.00
2023-02-15T21:25:34.386Z,100.00
2023-02-15T21:28:01.127Z,100.00
2023-02-15T21:30:27.688Z,100.00
2023-02-15T21:32:54.245Z,100.00
2023-02-15T21:35:20.894Z,100.00
2023-02-15T21:37:49.213Z,100.00
2023-02-15T21:40:17.229Z,100.00
2023-02-15T21:43:03.914Z,100.00
2023-02-15T21:45:49.063Z,100.00
2023-02-15T21:48:15.577Z,100.00
2023-02-15T21:51:00.681Z,100.00
2023-02-15T21:53:31.273Z,100.00
2023-02-15T21:55:59.110Z,100.00
2023-02-15T21:58:26.928Z,100.00
2023-02-15T22:00:55.322Z,100.00
2023-02-15T22:03:26.413Z,100.00
2023-02-15T22:05:52.876Z,100.00
2023-02-15T22:08:19.935Z,100.00
2023-02-15T22:10:47.939Z,100.00
2023-02-15T22:13:21.952Z,100.00
2023-02-15T22:15:48.411Z,100.00
2023-02-15T22:18:23.516Z,100.00
2023-02-15T22:20:50.105Z,100.00
2023-02-15T22:23:16.626Z,100.00
2023-02-15T22:25:54.616Z,100.00
2023-02-15T22:28:23.546Z,100.00
2023-02-15T22:30:49.997Z,100.00
2023-02-15T22:33:27.164Z,100.00
2023-02-15T22:35:53.646Z,100.00
2023-02-15T22:38:20.516Z,100.00
2023-02-15T22:40:47.764Z,100.00
2023-02-15T22:43:43.438Z,100.00
2023-02-15T22:46:21.325Z,100.00
2023-02-15T22:48:48.208Z,100.00
2023-02-15T22:51:15.917Z,100.00
2023-02-15T22:53:42.406Z,100.00
2023-02-15T22:56:11.577Z,100.00
2023-02-15T22:58:38.041Z,100.00
2023-02-15T23:01:04.821Z,100.00
2023-02-15T23:03:33.338Z,100.00
2023-02-15T23:05:59.931Z,100.00
2023-02-15T23:08:26.408Z,100.00
2023-02-15T23:10:55.016Z,100.00
2023-02-15T23:13:26.993Z,100.00
2023-02-15T23:15:58.411Z,100.00
2023-02-15T23:18:28.825Z,100.00
2023-02-15T23:21:03.404Z,100.00
2023-02-15T23:23:29.939Z,100.00
2023-02-15T23:25:56.597Z,100.00
2023-02-15T23:28:35.767Z,100.00
2023-02-15T23:31:02.712Z,100.00
2023-02-15T23:33:31.534Z,100.00
2023-02-15T23:35:58.056Z,100.00
2023-02-15T23:38:29.152Z,100.00
2023-02-15T23:41:18.990Z,100.00
2023-02-15T23:43:50.506Z,100.00
2023-02-15T23:46:39.378Z,100.00
2023-02-15T23:49:14.835Z,100.00
2023-02-15T23:51:42.713Z,100.00
2023-02-15T23:54:09.166Z,100.00
2023-02-15T23:56:35.632Z,100.00
2023-02-15T23:59:02.091Z,100.00
